JES3014 SABE-SASA
Flight info
| Callsign | JES3014 |
|---|---|
| Flight time | 1h 52m |
| Altitude | 32000 |
| Route | BIVAM4B BIVAM UW8 ERE UT672 DADMI UT677 ILPAR |
| Aircraft | A320/M-SDE3FGHIRWY/LB1 |
Departure
| Time | 2026-04-30 19:43 |
|---|---|
| Airport | Aeroparque Jorge Newbery (SABE) |
Arrival
| Time | 2026-04-30 21:35 |
|---|---|
| Airport | Martín Miguel de Güemes International Airport (SASA) |
| Time | Latitude | Longitude | Altitude | Speed | Heading |
|---|---|---|---|---|---|
| 2026-04-30 19:27 | -34.55763 | -58.41320 | 27 ft | 0 kts | 34° |
| 2026-04-30 19:34 | -34.55772 | -58.41327 | 27 ft | 4 kts | 25° |
| 2026-04-30 19:34 | -34.55814 | -58.41319 | 27 ft | 1 kts | 302° |
| 2026-04-30 19:35 | -34.55815 | -58.41318 | 27 ft | 0 kts | 302° |
| 2026-04-30 19:37 | -34.55804 | -58.41338 | 27 ft | 8 kts | 303° |
| 2026-04-30 19:37 | -34.55762 | -58.41419 | 27 ft | 13 kts | 301° |
| 2026-04-30 19:38 | -34.55722 | -58.41522 | 27 ft | 14 kts | 273° |
| 2026-04-30 19:38 | -34.55783 | -58.41616 | 27 ft | 15 kts | 253° |
| 2026-04-30 19:38 | -34.55741 | -58.41734 | 28 ft | 16 kts | 297° |
| 2026-04-30 19:38 | -34.55678 | -58.41857 | 26 ft | 18 kts | 304° |
| 2026-04-30 19:39 | -34.55607 | -58.41983 | 27 ft | 19 kts | 304° |
| 2026-04-30 19:39 | -34.55523 | -58.42121 | 27 ft | 21 kts | 306° |
| 2026-04-30 19:39 | -34.55438 | -58.42261 | 27 ft | 18 kts | 307° |
| 2026-04-30 19:39 | -34.55374 | -58.42371 | 27 ft | 15 kts | 295° |
| 2026-04-30 19:40 | -34.55368 | -58.42490 | 27 ft | 12 kts | 237° |
| 2026-04-30 19:40 | -34.55412 | -58.42498 | 27 ft | 1 kts | 124° |
| 2026-04-30 19:40 | -34.55412 | -58.42497 | 27 ft | 0 kts | 123° |
| 2026-04-30 19:42 | -34.55414 | -58.42493 | 27 ft | 6 kts | 123° |
| 2026-04-30 19:42 | -34.55580 | -58.42193 | 28 ft | 78 kts | 124° |
| 2026-04-30 19:43 | -34.55996 | -58.41445 | 31 ft | 132 kts | 123° |
| 2026-04-30 19:43 | -34.56582 | -58.40401 | 273 ft | 155 kts | 122° |
| 2026-04-30 19:43 | -34.57164 | -58.39309 | 973 ft | 154 kts | 118° |
| 2026-04-30 19:44 | -34.57876 | -58.36873 | 2085 ft | 160 kts | 92° |
| 2026-04-30 19:44 | -34.57883 | -58.35461 | 2345 ft | 177 kts | 78° |
| 2026-04-30 19:44 | -34.57556 | -58.33952 | 2526 ft | 195 kts | 63° |
| 2026-04-30 19:44 | -34.56842 | -58.32515 | 2854 ft | 202 kts | 46° |
| 2026-04-30 19:45 | -34.55807 | -58.31372 | 3323 ft | 202 kts | 30° |
| 2026-04-30 19:45 | -34.54572 | -58.30449 | 3654 ft | 216 kts | 28° |
| 2026-04-30 19:45 | -34.53212 | -58.29443 | 3922 ft | 241 kts | 28° |
| 2026-04-30 19:45 | -34.51725 | -58.28339 | 4446 ft | 257 kts | 28° |
| 2026-04-30 19:46 | -34.50061 | -58.27523 | 5191 ft | 261 kts | 9° |
| 2026-04-30 19:46 | -34.48252 | -58.27444 | 5986 ft | 262 kts | 350° |
| 2026-04-30 19:46 | -34.46519 | -58.28131 | 6781 ft | 264 kts | 330° |
| 2026-04-30 19:46 | -34.44986 | -58.29372 | 7581 ft | 266 kts | 324° |
| 2026-04-30 19:47 | -34.43458 | -58.30658 | 8386 ft | 268 kts | 324° |
| 2026-04-30 19:47 | -34.42441 | -58.31510 | 8927 ft | 270 kts | 324° |
| 2026-04-30 19:47 | -34.40363 | -58.33244 | 9983 ft | 272 kts | 324° |
| 2026-04-30 19:47 | -34.38774 | -58.34568 | 10431 ft | 286 kts | 323° |
| 2026-04-30 19:48 | -34.37068 | -58.35992 | 10580 ft | 309 kts | 324° |
| 2026-04-30 19:48 | -34.35236 | -58.37519 | 10774 ft | 328 kts | 324° |
| 2026-04-30 19:48 | -34.33330 | -58.39102 | 11290 ft | 335 kts | 323° |
| 2026-04-30 19:48 | -34.31396 | -58.40702 | 11911 ft | 338 kts | 323° |
| 2026-04-30 19:49 | -34.29443 | -58.42316 | 12534 ft | 342 kts | 323° |
| 2026-04-30 19:49 | -34.25488 | -58.45594 | 13751 ft | 348 kts | 323° |
| 2026-04-30 19:49 | -34.23480 | -58.47257 | 14307 ft | 351 kts | 323° |
| 2026-04-30 19:50 | -34.21463 | -58.48924 | 14886 ft | 352 kts | 323° |
| 2026-04-30 19:50 | -34.19441 | -58.50593 | 15467 ft | 353 kts | 322° |
| 2026-04-30 19:50 | -34.17409 | -58.52271 | 16023 ft | 354 kts | 322° |
| 2026-04-30 19:50 | -34.15531 | -58.54181 | 16555 ft | 353 kts | 310° |
| 2026-04-30 19:51 | -34.14129 | -58.56584 | 17105 ft | 353 kts | 296° |
| 2026-04-30 19:51 | -34.13281 | -58.59355 | 17664 ft | 354 kts | 283° |
| 2026-04-30 19:51 | -34.13039 | -58.62326 | 18223 ft | 359 kts | 270° |
| 2026-04-30 19:51 | -34.13331 | -58.65332 | 18720 ft | 362 kts | 265° |
| 2026-04-30 19:52 | -34.13680 | -58.68350 | 19245 ft | 363 kts | 265° |
| 2026-04-30 19:52 | -34.14026 | -58.71375 | 19769 ft | 365 kts | 265° |
| 2026-04-30 19:52 | -34.14340 | -58.74414 | 20266 ft | 365 kts | 269° |
| 2026-04-30 19:52 | -34.14184 | -58.77463 | 20710 ft | 364 kts | 282° |
| 2026-04-30 19:53 | -34.13392 | -58.80359 | 21159 ft | 366 kts | 295° |
| 2026-04-30 19:53 | -34.11999 | -58.82944 | 21592 ft | 371 kts | 308° |
| 2026-04-30 19:53 | -34.10077 | -58.85048 | 22022 ft | 378 kts | 321° |
| 2026-04-30 19:53 | -34.07829 | -58.86731 | 22446 ft | 382 kts | 324° |
| 2026-04-30 19:54 | -34.05552 | -58.88393 | 22884 ft | 384 kts | 324° |
| 2026-04-30 19:54 | -34.03260 | -58.90065 | 23322 ft | 386 kts | 324° |
| 2026-04-30 19:54 | -34.00957 | -58.91747 | 23700 ft | 388 kts | 323° |
| 2026-04-30 19:54 | -33.98639 | -58.93437 | 24048 ft | 390 kts | 324° |
| 2026-04-30 19:55 | -33.96315 | -58.95133 | 24377 ft | 392 kts | 324° |
| 2026-04-30 19:55 | -33.93982 | -58.96840 | 24720 ft | 393 kts | 324° |
| 2026-04-30 19:55 | -33.91637 | -58.98555 | 25053 ft | 395 kts | 324° |
| 2026-04-30 19:55 | -33.89285 | -59.00278 | 25377 ft | 397 kts | 324° |
| 2026-04-30 19:56 | -33.86919 | -59.02010 | 25701 ft | 399 kts | 324° |
| 2026-04-30 19:56 | -33.84538 | -59.03750 | 26037 ft | 401 kts | 324° |
| 2026-04-30 19:56 | -33.82143 | -59.05492 | 26363 ft | 403 kts | 324° |
| 2026-04-30 19:56 | -33.79741 | -59.07240 | 26696 ft | 405 kts | 324° |
| 2026-04-30 19:57 | -33.77325 | -59.09002 | 27018 ft | 407 kts | 324° |
| 2026-04-30 19:57 | -33.74898 | -59.10771 | 27355 ft | 408 kts | 324° |
| 2026-04-30 19:57 | -33.72502 | -59.12509 | 27776 ft | 407 kts | 324° |
| 2026-04-30 19:57 | -33.70079 | -59.14268 | 28263 ft | 406 kts | 324° |
| 2026-04-30 19:58 | -33.67668 | -59.16019 | 28740 ft | 404 kts | 324° |
| 2026-04-30 19:58 | -33.65266 | -59.17765 | 29211 ft | 403 kts | 324° |
| 2026-04-30 19:58 | -33.62874 | -59.19503 | 29689 ft | 402 kts | 324° |
| 2026-04-30 19:58 | -33.60486 | -59.21237 | 30143 ft | 401 kts | 324° |
| 2026-04-30 19:59 | -33.58104 | -59.22963 | 30543 ft | 399 kts | 324° |
| 2026-04-30 19:59 | -33.55729 | -59.24678 | 30935 ft | 398 kts | 324° |
| 2026-04-30 19:59 | -33.50999 | -59.28091 | 31725 ft | 396 kts | 324° |
| 2026-04-30 20:00 | -33.48636 | -59.29798 | 31932 ft | 396 kts | 324° |
| 2026-04-30 20:00 | -33.43841 | -59.33270 | 31972 ft | 407 kts | 324° |
| 2026-04-30 20:01 | -33.36535 | -59.38548 | 31964 ft | 410 kts | 325° |
| 2026-04-30 20:01 | -33.31651 | -59.42060 | 31964 ft | 409 kts | 325° |
| 2026-04-30 20:02 | -33.24325 | -59.47313 | 31961 ft | 409 kts | 325° |
| 2026-04-30 20:03 | -33.17004 | -59.52557 | 31951 ft | 409 kts | 325° |
| 2026-04-30 20:03 | -33.12120 | -59.56053 | 31957 ft | 409 kts | 325° |
| 2026-04-30 20:04 | -33.08071 | -59.58951 | 31960 ft | 409 kts | 325° |
| 2026-04-30 20:05 | -33.00749 | -59.64185 | 31953 ft | 409 kts | 325° |
| 2026-04-30 20:05 | -32.92641 | -59.69955 | 31957 ft | 408 kts | 325° |
| 2026-04-30 20:06 | -32.88555 | -59.72864 | 31953 ft | 408 kts | 325° |
| 2026-04-30 20:06 | -32.83681 | -59.76336 | 31953 ft | 408 kts | 325° |
| 2026-04-30 20:07 | -32.78808 | -59.79795 | 31945 ft | 408 kts | 325° |
| 2026-04-30 20:08 | -32.71533 | -59.84937 | 31951 ft | 407 kts | 325° |
| 2026-04-30 20:08 | -32.66667 | -59.88377 | 31952 ft | 407 kts | 325° |
| 2026-04-30 20:09 | -32.61795 | -59.91808 | 31961 ft | 407 kts | 326° |
| 2026-04-30 20:09 | -32.54460 | -59.96988 | 31952 ft | 407 kts | 325° |
| 2026-04-30 20:10 | -32.47190 | -60.02126 | 31949 ft | 407 kts | 325° |
| 2026-04-30 20:11 | -32.39889 | -60.07275 | 31933 ft | 407 kts | 325° |
| 2026-04-30 20:11 | -32.35022 | -60.10696 | 31938 ft | 407 kts | 326° |
| 2026-04-30 20:12 | -32.27711 | -60.15808 | 31941 ft | 407 kts | 326° |
| 2026-04-30 20:13 | -32.22841 | -60.19219 | 31929 ft | 407 kts | 326° |
| 2026-04-30 20:13 | -32.17975 | -60.22623 | 31933 ft | 407 kts | 326° |
| 2026-04-30 20:14 | -32.13111 | -60.26028 | 31938 ft | 406 kts | 326° |
| 2026-04-30 20:14 | -32.08256 | -60.29413 | 31939 ft | 406 kts | 326° |
| 2026-04-30 20:15 | -32.03385 | -60.32793 | 31946 ft | 406 kts | 326° |
| 2026-04-30 20:15 | -31.98517 | -60.36181 | 31931 ft | 406 kts | 326° |
| 2026-04-30 20:16 | -31.93654 | -60.39567 | 31941 ft | 406 kts | 326° |
| 2026-04-30 20:16 | -31.88790 | -60.42948 | 31947 ft | 406 kts | 326° |
| 2026-04-30 20:17 | -31.83923 | -60.46326 | 31963 ft | 406 kts | 326° |
| 2026-04-30 20:17 | -31.79070 | -60.49716 | 31944 ft | 405 kts | 324° |
| 2026-04-30 20:18 | -31.74338 | -60.53307 | 31946 ft | 405 kts | 323° |
| 2026-04-30 20:18 | -31.69646 | -60.56971 | 31945 ft | 405 kts | 323° |
| 2026-04-30 20:19 | -31.64935 | -60.60597 | 31944 ft | 405 kts | 323° |
| 2026-04-30 20:19 | -31.60210 | -60.64189 | 31901 ft | 405 kts | 323° |
| 2026-04-30 20:20 | -31.55507 | -60.67753 | 31917 ft | 405 kts | 323° |
| 2026-04-30 20:20 | -31.50773 | -60.71342 | 31913 ft | 405 kts | 323° |
| 2026-04-30 20:21 | -31.46037 | -60.74922 | 31914 ft | 405 kts | 323° |
| 2026-04-30 20:21 | -31.41298 | -60.78503 | 31903 ft | 405 kts | 323° |
| 2026-04-30 20:22 | -31.36571 | -60.82082 | 31908 ft | 405 kts | 323° |
| 2026-04-30 20:22 | -31.31839 | -60.85659 | 31910 ft | 405 kts | 323° |
| 2026-04-30 20:23 | -31.27103 | -60.89234 | 31915 ft | 405 kts | 323° |
| 2026-04-30 20:23 | -31.22368 | -60.92794 | 31918 ft | 405 kts | 323° |
| 2026-04-30 20:24 | -31.17630 | -60.96355 | 31901 ft | 405 kts | 323° |
| 2026-04-30 20:24 | -31.12895 | -60.99912 | 31904 ft | 405 kts | 323° |
| 2026-04-30 20:25 | -31.05789 | -61.05242 | 31918 ft | 405 kts | 323° |
| 2026-04-30 20:26 | -30.98688 | -61.10560 | 31900 ft | 405 kts | 323° |
| 2026-04-30 20:26 | -30.91607 | -61.15843 | 31904 ft | 405 kts | 323° |
| 2026-04-30 20:27 | -30.82122 | -61.22899 | 31906 ft | 405 kts | 323° |
| 2026-04-30 20:28 | -30.72621 | -61.29941 | 31886 ft | 405 kts | 324° |
| 2026-04-30 20:30 | -30.60736 | -61.38738 | 31902 ft | 405 kts | 324° |
| 2026-04-30 20:31 | -30.46477 | -61.49269 | 31895 ft | 405 kts | 324° |
| 2026-04-30 20:32 | -30.34578 | -61.58023 | 31876 ft | 406 kts | 324° |
| 2026-04-30 20:33 | -30.27419 | -61.63275 | 31880 ft | 406 kts | 324° |
| 2026-04-30 20:34 | -30.20252 | -61.68532 | 31882 ft | 407 kts | 324° |
| 2026-04-30 20:35 | -30.13103 | -61.73753 | 31868 ft | 407 kts | 324° |
| 2026-04-30 20:35 | -30.05880 | -61.79028 | 31878 ft | 408 kts | 324° |
| 2026-04-30 20:36 | -30.01076 | -61.82531 | 31888 ft | 408 kts | 324° |
| 2026-04-30 20:37 | -29.93892 | -61.87745 | 31863 ft | 409 kts | 324° |
| 2026-04-30 20:37 | -29.89082 | -61.91246 | 31875 ft | 409 kts | 324° |
| 2026-04-30 20:38 | -29.84195 | -61.94622 | 31894 ft | 411 kts | 327° |
| 2026-04-30 20:38 | -29.79138 | -61.97708 | 31894 ft | 412 kts | 329° |
| 2026-04-30 20:39 | -29.71519 | -62.02263 | 31878 ft | 411 kts | 328° |
| 2026-04-30 20:40 | -29.63953 | -62.06916 | 31882 ft | 411 kts | 328° |
| 2026-04-30 20:40 | -29.58915 | -62.10025 | 31886 ft | 411 kts | 328° |
| 2026-04-30 20:41 | -29.51352 | -62.14673 | 31889 ft | 411 kts | 328° |
| 2026-04-30 20:41 | -29.46309 | -62.17764 | 31871 ft | 411 kts | 328° |
| 2026-04-30 20:42 | -29.41267 | -62.20853 | 31878 ft | 411 kts | 328° |
| 2026-04-30 20:43 | -29.33703 | -62.25466 | 31895 ft | 410 kts | 328° |
| 2026-04-30 20:43 | -29.28670 | -62.28548 | 31893 ft | 410 kts | 328° |
| 2026-04-30 20:44 | -29.21117 | -62.33150 | 31875 ft | 410 kts | 328° |
| 2026-04-30 20:45 | -29.11055 | -62.39267 | 31876 ft | 409 kts | 328° |
| 2026-04-30 20:45 | -29.06025 | -62.42321 | 31876 ft | 410 kts | 328° |
| 2026-04-30 20:46 | -28.95990 | -62.48393 | 31869 ft | 409 kts | 328° |
| 2026-04-30 20:47 | -28.88449 | -62.52959 | 31879 ft | 409 kts | 328° |
| 2026-04-30 20:48 | -28.81116 | -62.57862 | 31855 ft | 406 kts | 321° |
| 2026-04-30 20:48 | -28.76560 | -62.61655 | 31862 ft | 406 kts | 321° |
| 2026-04-30 20:49 | -28.71995 | -62.65437 | 31859 ft | 406 kts | 321° |
| 2026-04-30 20:50 | -28.65149 | -62.71110 | 31863 ft | 406 kts | 321° |
| 2026-04-30 20:50 | -28.60587 | -62.74887 | 31866 ft | 406 kts | 321° |
| 2026-04-30 20:51 | -28.56019 | -62.78661 | 31860 ft | 405 kts | 321° |
| 2026-04-30 20:51 | -28.49179 | -62.84309 | 31891 ft | 405 kts | 321° |
| 2026-04-30 20:52 | -28.44617 | -62.88075 | 31885 ft | 405 kts | 321° |
| 2026-04-30 20:53 | -28.37803 | -62.93687 | 31879 ft | 405 kts | 321° |
| 2026-04-30 20:53 | -28.33238 | -62.97437 | 31877 ft | 405 kts | 321° |
| 2026-04-30 20:54 | -28.26396 | -63.03057 | 31870 ft | 405 kts | 321° |
| 2026-04-30 20:55 | -28.20290 | -63.08061 | 31868 ft | 405 kts | 321° |
| 2026-04-30 20:55 | -28.15736 | -63.11801 | 31859 ft | 405 kts | 321° |
| 2026-04-30 20:56 | -28.08889 | -63.17408 | 31861 ft | 405 kts | 322° |
| 2026-04-30 20:57 | -28.02070 | -63.22967 | 31864 ft | 404 kts | 322° |
| 2026-04-30 20:57 | -27.97507 | -63.26692 | 31859 ft | 405 kts | 322° |
| 2026-04-30 20:58 | -27.90667 | -63.32251 | 31849 ft | 405 kts | 322° |
| 2026-04-30 20:58 | -27.86102 | -63.35963 | 31858 ft | 404 kts | 321° |
| 2026-04-30 20:59 | -27.79257 | -63.41530 | 31859 ft | 404 kts | 322° |
| 2026-04-30 21:00 | -27.70125 | -63.48937 | 31866 ft | 404 kts | 322° |
| 2026-04-30 21:01 | -27.63285 | -63.54470 | 31855 ft | 403 kts | 322° |
| 2026-04-30 21:02 | -27.56449 | -63.59994 | 31854 ft | 403 kts | 322° |
| 2026-04-30 21:02 | -27.51892 | -63.63667 | 31845 ft | 403 kts | 322° |
| 2026-04-30 21:03 | -27.47335 | -63.67345 | 31844 ft | 403 kts | 322° |
| 2026-04-30 21:03 | -27.42790 | -63.71019 | 31829 ft | 402 kts | 322° |
| 2026-04-30 21:04 | -27.38241 | -63.74679 | 31859 ft | 402 kts | 322° |
| 2026-04-30 21:04 | -27.31412 | -63.80155 | 31845 ft | 402 kts | 322° |
| 2026-04-30 21:05 | -27.26858 | -63.83806 | 31841 ft | 402 kts | 322° |
| 2026-04-30 21:05 | -27.22305 | -63.87454 | 31813 ft | 402 kts | 322° |
| 2026-04-30 21:06 | -27.17787 | -63.91067 | 31819 ft | 401 kts | 322° |
| 2026-04-30 21:06 | -27.13237 | -63.94708 | 31823 ft | 401 kts | 322° |
| 2026-04-30 21:07 | -27.08690 | -63.98344 | 31822 ft | 401 kts | 322° |
| 2026-04-30 21:07 | -27.04138 | -64.01977 | 31819 ft | 402 kts | 322° |
| 2026-04-30 21:08 | -26.99586 | -64.05609 | 31818 ft | 402 kts | 322° |
| 2026-04-30 21:08 | -26.95026 | -64.09248 | 31823 ft | 402 kts | 322° |
| 2026-04-30 21:09 | -26.90487 | -64.12922 | 31819 ft | 403 kts | 322° |
| 2026-04-30 21:09 | -26.85947 | -64.16611 | 31821 ft | 403 kts | 322° |
| 2026-04-30 21:10 | -26.81400 | -64.20293 | 31832 ft | 404 kts | 322° |
| 2026-04-30 21:10 | -26.76844 | -64.23970 | 31831 ft | 404 kts | 322° |
| 2026-04-30 21:11 | -26.72314 | -64.27617 | 31809 ft | 404 kts | 322° |
| 2026-04-30 21:11 | -26.67757 | -64.31292 | 31813 ft | 404 kts | 322° |
| 2026-04-30 21:12 | -26.63191 | -64.34968 | 31821 ft | 404 kts | 322° |
| 2026-04-30 21:12 | -26.58623 | -64.38644 | 31827 ft | 405 kts | 322° |
| 2026-04-30 21:13 | -26.54047 | -64.42334 | 31828 ft | 406 kts | 322° |
| 2026-04-30 21:13 | -26.49455 | -64.46021 | 31813 ft | 406 kts | 322° |
| 2026-04-30 21:14 | -26.44864 | -64.49702 | 31833 ft | 406 kts | 322° |
| 2026-04-30 21:14 | -26.40265 | -64.53380 | 31840 ft | 407 kts | 322° |
| 2026-04-30 21:15 | -26.35665 | -64.57050 | 31852 ft | 407 kts | 322° |
| 2026-04-30 21:15 | -26.31095 | -64.60697 | 31864 ft | 407 kts | 322° |
| 2026-04-30 21:16 | -26.26499 | -64.64366 | 31868 ft | 406 kts | 322° |
| 2026-04-30 21:16 | -26.21907 | -64.68036 | 31873 ft | 406 kts | 322° |
| 2026-04-30 21:17 | -26.17319 | -64.71700 | 31886 ft | 405 kts | 322° |
| 2026-04-30 21:17 | -26.12730 | -64.75353 | 31892 ft | 406 kts | 322° |
| 2026-04-30 21:18 | -26.08141 | -64.79005 | 31895 ft | 405 kts | 322° |
| 2026-04-30 21:18 | -26.05850 | -64.80826 | 31103 ft | 408 kts | 322° |
| 2026-04-30 21:18 | -26.03491 | -64.82698 | 29715 ft | 424 kts | 323° |
| 2026-04-30 21:19 | -26.01074 | -64.84612 | 28874 ft | 424 kts | 322° |
| 2026-04-30 21:19 | -25.98700 | -64.86490 | 28422 ft | 415 kts | 322° |
| 2026-04-30 21:19 | -25.96364 | -64.88340 | 27841 ft | 409 kts | 322° |
| 2026-04-30 21:19 | -25.94064 | -64.90165 | 27278 ft | 405 kts | 322° |
| 2026-04-30 21:20 | -25.91782 | -64.91979 | 26707 ft | 401 kts | 322° |
| 2026-04-30 21:20 | -25.89525 | -64.93771 | 26156 ft | 397 kts | 322° |
| 2026-04-30 21:20 | -25.87285 | -64.95543 | 25609 ft | 394 kts | 322° |
| 2026-04-30 21:20 | -25.85066 | -64.97298 | 25065 ft | 390 kts | 322° |
| 2026-04-30 21:21 | -25.82867 | -64.99040 | 24524 ft | 388 kts | 322° |
| 2026-04-30 21:21 | -25.80677 | -65.00773 | 23992 ft | 385 kts | 322° |
| 2026-04-30 21:21 | -25.76337 | -65.04200 | 22893 ft | 380 kts | 321° |
| 2026-04-30 21:22 | -25.74192 | -65.05894 | 22386 ft | 377 kts | 321° |
| 2026-04-30 21:22 | -25.67805 | -65.10789 | 20916 ft | 369 kts | 324° |
| 2026-04-30 21:23 | -25.65607 | -65.12254 | 20434 ft | 368 kts | 326° |
| 2026-04-30 21:23 | -25.63395 | -65.13662 | 19950 ft | 366 kts | 326° |
| 2026-04-30 21:23 | -25.59013 | -65.16416 | 18977 ft | 363 kts | 326° |
| 2026-04-30 21:24 | -25.56831 | -65.17806 | 18492 ft | 361 kts | 326° |
| 2026-04-30 21:24 | -25.54635 | -65.19225 | 17933 ft | 360 kts | 325° |
| 2026-04-30 21:24 | -25.52479 | -65.20629 | 17412 ft | 358 kts | 326° |
| 2026-04-30 21:24 | -25.50339 | -65.22027 | 16893 ft | 356 kts | 326° |
| 2026-04-30 21:25 | -25.46085 | -65.24803 | 15858 ft | 354 kts | 326° |
| 2026-04-30 21:25 | -25.43993 | -65.26170 | 15326 ft | 354 kts | 326° |
| 2026-04-30 21:25 | -25.41873 | -65.27555 | 14791 ft | 354 kts | 327° |
| 2026-04-30 21:26 | -25.37633 | -65.30316 | 13713 ft | 353 kts | 327° |
| 2026-04-30 21:26 | -25.35531 | -65.31680 | 13117 ft | 352 kts | 327° |
| 2026-04-30 21:27 | -25.31334 | -65.34399 | 12046 ft | 348 kts | 328° |
| 2026-04-30 21:27 | -25.29244 | -65.35758 | 11503 ft | 347 kts | 328° |
| 2026-04-30 21:27 | -25.27180 | -65.37098 | 11254 ft | 338 kts | 328° |
| 2026-04-30 21:28 | -25.23365 | -65.39568 | 11012 ft | 296 kts | 329° |
| 2026-04-30 21:28 | -25.21648 | -65.40681 | 10892 ft | 277 kts | 329° |
| 2026-04-30 21:28 | -25.18419 | -65.42778 | 10549 ft | 265 kts | 329° |
| 2026-04-30 21:29 | -25.16837 | -65.43806 | 10325 ft | 263 kts | 329° |
| 2026-04-30 21:29 | -25.12110 | -65.46878 | 9531 ft | 255 kts | 330° |
| 2026-04-30 21:30 | -25.09258 | -65.48738 | 9286 ft | 221 kts | 330° |
| 2026-04-30 21:31 | -25.05477 | -65.51200 | 8116 ft | 204 kts | 330° |
| 2026-04-30 21:31 | -25.02924 | -65.52310 | 7442 ft | 192 kts | 359° |
| 2026-04-30 21:32 | -25.00358 | -65.51851 | 6919 ft | 187 kts | 12° |
| 2026-04-30 21:32 | -24.99093 | -65.51575 | 6638 ft | 184 kts | 11° |
| 2026-04-30 21:32 | -24.97839 | -65.51304 | 6375 ft | 183 kts | 12° |
| 2026-04-30 21:32 | -24.96604 | -65.51034 | 6100 ft | 179 kts | 11° |
| 2026-04-30 21:33 | -24.95415 | -65.50774 | 5847 ft | 166 kts | 12° |
| 2026-04-30 21:33 | -24.93303 | -65.50310 | 5402 ft | 150 kts | 13° |
| 2026-04-30 21:33 | -24.92304 | -65.50088 | 5232 ft | 145 kts | 15° |
| 2026-04-30 21:34 | -24.91306 | -65.49834 | 4935 ft | 152 kts | 15° |
| 2026-04-30 21:34 | -24.89233 | -65.49399 | 4449 ft | 147 kts | 12° |
| 2026-04-30 21:34 | -24.88258 | -65.49189 | 4248 ft | 138 kts | 11° |
| 2026-04-30 21:35 | -24.87322 | -65.48993 | 4070 ft | 140 kts | 10° |
| 2026-04-30 21:35 | -24.86437 | -65.48804 | 4013 ft | 112 kts | 11° |
| 2026-04-30 21:35 | -24.85844 | -65.48678 | 4018 ft | 62 kts | 11° |
| 2026-04-30 21:35 | -24.85491 | -65.48603 | 4018 ft | 48 kts | 11° |
| 2026-04-30 21:36 | -24.85181 | -65.48537 | 4018 ft | 43 kts | 11° |
| 2026-04-30 21:36 | -24.84918 | -65.48481 | 4018 ft | 33 kts | 10° |
| 2026-04-30 21:37 | -24.84565 | -65.48183 | 4017 ft | 14 kts | 72° |
| 2026-04-30 21:37 | -24.84533 | -65.48074 | 4017 ft | 15 kts | 71° |
| 2026-04-30 21:37 | -24.84505 | -65.47979 | 4017 ft | 10 kts | 73° |
| 2026-04-30 21:37 | -24.84502 | -65.47930 | 4017 ft | 1 kts | 99° |
| 2026-04-30 21:38 | -24.84499 | -65.47915 | 4017 ft | 3 kts | 65° |
| 2026-04-30 21:38 | -24.84477 | -65.47902 | 4017 ft | 4 kts | 22° |
| 2026-04-30 21:38 | -24.84470 | -65.47898 | 4017 ft | 0 kts | 22° |